createdAt,value
2023-01-22T00:01:16.012Z,-0.17
2023-01-22T00:03:46.542Z,-0.32
2023-01-22T00:06:15.786Z,-0.23
2023-01-22T00:08:45.134Z,-0.21
2023-01-22T00:11:13.163Z,-0.23
2023-01-22T00:13:41.977Z,-0.23
2023-01-22T00:16:13.249Z,-0.25
2023-01-22T00:18:41.377Z,-0.26
2023-01-22T00:21:14.660Z,-0.18
2023-01-22T00:23:42.575Z,-0.27
2023-01-22T00:26:13.778Z,-0.25
2023-01-22T00:28:44.008Z,-0.27
2023-01-22T00:31:13.991Z,-0.27
2023-01-22T00:33:42.592Z,-0.32
2023-01-22T00:36:18.393Z,-0.36
2023-01-22T00:38:48.616Z,-0.36
2023-01-22T00:41:19.461Z,-0.34
2023-01-22T00:43:48.205Z,-0.37
2023-01-22T00:46:17.996Z,-0.39
2023-01-22T00:48:50.161Z,-0.37
2023-01-22T00:51:18.608Z,-0.32
2023-01-22T00:53:46.841Z,-0.43
2023-01-22T00:56:15.789Z,-0.36
2023-01-22T00:58:48.030Z,-0.38
2023-01-22T01:01:16.693Z,-0.43
2023-01-22T01:03:44.666Z,-0.38
2023-01-22T01:06:18.255Z,-0.35
2023-01-22T01:08:48.715Z,-0.46
2023-01-22T01:11:18.684Z,-0.32
2023-01-22T01:13:48.092Z,-0.36
2023-01-22T01:16:19.267Z,-0.34
2023-01-22T01:18:47.893Z,-0.33
2023-01-22T01:21:17.064Z,-0.38
2023-01-22T01:23:45.093Z,-0.48
2023-01-22T01:26:15.198Z,-0.34
2023-01-22T01:28:45.241Z,-0.41
2023-01-22T01:31:16.923Z,-0.32
2023-01-22T01:33:45.295Z,-0.32
2023-01-22T01:36:15.114Z,-0.31
2023-01-22T01:38:43.851Z,-0.30
2023-01-22T01:41:15.172Z,-0.33
2023-01-22T01:43:43.634Z,-0.30
2023-01-22T01:46:19.941Z,-0.34
2023-01-22T01:48:52.374Z,-0.41
2023-01-22T01:51:26.800Z,-0.31
2023-01-22T01:53:54.904Z,-0.32
2023-01-22T01:56:31.191Z,-0.31
2023-01-22T01:59:04.796Z,-0.32
2023-01-22T02:01:34.519Z,-0.26
2023-01-22T02:04:02.596Z,-0.29
2023-01-22T02:06:30.695Z,-0.31
2023-01-22T02:09:00.477Z,-0.26
2023-01-22T02:11:30.366Z,-0.28
2023-01-22T02:14:02.537Z,-0.34
2023-01-22T02:16:30.959Z,-0.23
2023-01-22T02:19:00.393Z,-0.26
2023-01-22T02:21:36.449Z,-0.23
2023-01-22T02:24:05.690Z,-0.26
2023-01-22T02:26:34.585Z,-0.25
2023-01-22T02:29:02.739Z,-0.23
2023-01-22T02:31:31.749Z,-0.27
2023-01-22T02:34:01.853Z,-0.29
2023-01-22T02:36:33.716Z,-0.28
2023-01-22T02:39:01.707Z,-0.33
2023-01-22T02:41:29.667Z,-0.37
2023-01-22T02:44:00.222Z,-0.26
2023-01-22T02:46:33.775Z,-0.28
2023-01-22T02:49:01.744Z,-0.33
2023-01-22T02:51:32.880Z,-0.27
2023-01-22T02:54:00.948Z,-0.26
2023-01-22T02:56:29.087Z,-0.24
2023-01-22T02:58:57.158Z,-0.27
2023-01-22T03:01:25.955Z,-0.24
2023-01-22T03:04:03.197Z,-0.23
2023-01-22T03:06:34.139Z,-0.24
2023-01-22T03:09:03.327Z,-0.22
2023-01-22T03:11:38.027Z,-0.22
2023-01-22T03:14:28.171Z,-0.23
2023-01-22T03:17:14.079Z,-0.24
2023-01-22T03:20:00.134Z,-0.33
2023-01-22T03:22:30.372Z,-0.24
2023-01-22T03:25:00.508Z,-0.23
2023-01-22T03:27:31.846Z,-0.22
2023-01-22T03:30:00.150Z,-0.29
2023-01-22T03:32:31.796Z,-0.25
2023-01-22T03:35:01.737Z,-0.26
2023-01-22T03:37:41.059Z,-0.29
2023-01-22T03:40:10.869Z,-0.30
2023-01-22T03:42:40.527Z,-0.30
2023-01-22T03:45:09.940Z,-0.30
2023-01-22T03:47:39.076Z,-0.47
2023-01-22T03:50:21.283Z,-0.31
2023-01-22T03:52:52.709Z,-0.33
2023-01-22T03:55:20.719Z,-0.36
2023-01-22T03:57:48.621Z,-0.37
2023-01-22T04:00:19.082Z,-0.37
2023-01-22T04:02:47.323Z,-0.39
2023-01-22T04:05:21.525Z,-0.38
2023-01-22T04:07:51.530Z,-0.44
2023-01-22T04:10:23.804Z,-0.42
2023-01-22T04:12:52.441Z,-0.41
2023-01-22T04:15:22.891Z,-0.42
2023-01-22T04:17:52.021Z,-0.40
2023-01-22T04:20:30.543Z,-0.43
2023-01-22T04:23:20.413Z,-0.43
2023-01-22T04:25:50.140Z,-0.42
2023-01-22T04:28:18.491Z,-0.46
2023-01-22T04:30:53.113Z,-0.41
2023-01-22T04:33:39.170Z,-0.38
2023-01-22T04:36:11.792Z,-0.42
2023-01-22T04:38:41.021Z,-0.37
2023-01-22T04:41:09.861Z,-0.44
2023-01-22T04:43:43.276Z,-0.42
2023-01-22T04:46:11.426Z,-0.36
2023-01-22T04:48:39.473Z,-0.37
2023-01-22T04:51:07.468Z,-0.36
2023-01-22T04:53:35.519Z,-0.37
2023-01-22T04:56:05.224Z,-0.42
2023-01-22T04:58:35.753Z,-0.41
2023-01-22T05:01:03.815Z,-0.58
2023-01-22T05:03:32.377Z,-0.43
2023-01-22T05:06:04.347Z,-0.44
2023-01-22T05:08:34.681Z,-0.53
2023-01-22T05:11:05.470Z,-0.45
2023-01-22T05:13:51.360Z,-0.52
2023-01-22T05:16:20.192Z,-0.49
2023-01-22T05:18:48.548Z,-0.47
2023-01-22T05:21:18.339Z,-0.47
2023-01-22T05:23:47.783Z,-0.48
2023-01-22T05:26:20.938Z,-0.47
2023-01-22T05:28:55.606Z,-0.47
2023-01-22T05:31:43.644Z,-0.46
2023-01-22T05:34:26.148Z,-0.60
2023-01-22T05:36:54.538Z,-0.46
2023-01-22T05:39:24.298Z,-0.45
2023-01-22T05:41:55.816Z,-0.45
2023-01-22T05:44:27.297Z,-0.54
2023-01-22T05:46:56.695Z,-0.46
2023-01-22T05:49:30.160Z,-0.45
2023-01-22T05:51:59.937Z,-0.44
2023-01-22T05:54:43.313Z,-0.89
2023-01-22T05:57:12.769Z,-0.43
2023-01-22T05:59:40.896Z,-0.44
2023-01-22T06:02:09.798Z,-0.44
2023-01-22T06:04:45.903Z,-0.52
2023-01-22T06:07:20.493Z,-0.42
2023-01-22T06:09:48.788Z,-0.44
2023-01-22T06:12:19.050Z,-0.45
2023-01-22T06:14:48.012Z,-0.48
2023-01-22T06:17:17.032Z,-0.46
2023-01-22T06:19:54.519Z,-0.46
2023-01-22T06:22:22.482Z,-0.48
2023-01-22T06:24:55.040Z,-0.47
2023-01-22T06:27:27.270Z,-0.48
2023-01-22T06:29:59.771Z,-0.49
2023-01-22T06:32:28.080Z,-0.48
2023-01-22T06:34:55.983Z,-0.48
2023-01-22T06:37:24.251Z,-0.49
2023-01-22T06:39:54.235Z,-0.47
2023-01-22T06:42:28.098Z,-0.51
2023-01-22T06:44:57.545Z,-0.48
2023-01-22T06:47:28.582Z,-0.49
2023-01-22T06:49:56.557Z,-0.51
2023-01-22T06:52:24.623Z,-0.57
2023-01-22T06:54:55.636Z,-0.47
2023-01-22T06:57:25.895Z,-0.48
2023-01-22T06:59:55.741Z,-0.48
2023-01-22T07:02:23.655Z,-0.46
2023-01-22T07:04:51.565Z,-0.47
2023-01-22T07:07:20.478Z,-0.48
2023-01-22T07:09:48.355Z,-0.51
2023-01-22T07:12:16.245Z,-0.47
2023-01-22T07:14:44.141Z,-0.47
2023-01-22T07:17:13.397Z,-0.47
2023-01-22T07:19:44.245Z,-0.47
2023-01-22T07:22:11.974Z,-0.49
2023-01-22T07:24:39.900Z,-0.45
2023-01-22T07:27:10.804Z,-0.46
2023-01-22T07:29:38.933Z,-0.46
2023-01-22T07:32:07.180Z,-0.48
2023-01-22T07:34:37.366Z,-0.43
2023-01-22T07:37:05.260Z,-0.49
2023-01-22T07:39:33.153Z,-0.49
2023-01-22T07:42:01.603Z,-0.48
2023-01-22T07:44:31.750Z,-0.48
2023-01-22T07:46:59.605Z,-0.53
2023-01-22T07:49:28.824Z,-0.47
2023-01-22T07:51:58.028Z,-0.48
2023-01-22T07:54:26.036Z,-0.49
2023-01-22T07:56:53.966Z,-0.47
2023-01-22T07:59:21.964Z,-0.47
2023-01-22T08:01:50.086Z,-0.48
2023-01-22T08:04:17.983Z,-0.44
2023-01-22T08:06:45.882Z,-0.48
2023-01-22T08:09:16.508Z,-0.46
2023-01-22T08:11:44.392Z,-0.46
2023-01-22T08:14:12.244Z,-0.48
2023-01-22T08:16:39.987Z,-0.48
2023-01-22T08:19:07.875Z,-0.46
2023-01-22T08:21:35.536Z,-0.44
2023-01-22T08:24:05.036Z,-0.43
2023-01-22T08:26:34.278Z,-0.46
2023-01-22T08:29:05.906Z,-0.37
2023-01-22T08:31:36.456Z,-0.34
2023-01-22T08:34:04.394Z,-0.34
2023-01-22T08:36:32.302Z,-0.29
2023-01-22T08:38:59.986Z,-0.26
2023-01-22T08:41:27.868Z,-0.23
2023-01-22T08:43:57.091Z,-0.22
2023-01-22T08:46:28.842Z,-0.22
2023-01-22T08:48:56.708Z,-0.19
2023-01-22T08:51:25.011Z,-0.20
2023-01-22T08:53:53.036Z,-0.18
2023-01-22T08:56:20.942Z,-0.16
2023-01-22T08:58:50.101Z,-0.12
2023-01-22T09:01:20.821Z,-0.10
2023-01-22T09:03:49.648Z,-0.11
2023-01-22T09:06:17.604Z,-0.06
2023-01-22T09:08:45.673Z,-0.04
2023-01-22T09:11:13.583Z,-0.03
2023-01-22T09:13:41.599Z,-0.12
2023-01-22T09:16:10.909Z,-0.09
2023-01-22T09:18:40.779Z,-0.03
2023-01-22T09:21:09.174Z,0.00
2023-01-22T09:23:37.049Z,-0.04
2023-01-22T09:26:05.166Z,-0.01
2023-01-22T09:28:35.825Z,0.02
2023-01-22T09:31:04.330Z,0.06
2023-01-22T09:33:32.309Z,0.14
2023-01-22T09:36:10.445Z,0.07
2023-01-22T09:38:38.428Z,0.17
2023-01-22T09:41:14.862Z,0.20
2023-01-22T09:43:50.552Z,0.13
2023-01-22T09:46:24.672Z,0.19
2023-01-22T09:49:02.367Z,0.16
2023-01-22T09:51:31.776Z,0.19
2023-01-22T09:54:03.128Z,0.22
2023-01-22T09:56:37.241Z,0.35
2023-01-22T09:59:08.660Z,0.43
2023-01-22T10:01:38.974Z,0.36
2023-01-22T10:04:20.416Z,0.33
2023-01-22T10:06:51.744Z,0.24
2023-01-22T10:09:21.826Z,0.18
2023-01-22T10:11:53.367Z,0.15
2023-01-22T10:14:24.265Z,0.26
2023-01-22T10:16:52.289Z,0.37
2023-01-22T10:19:24.350Z,0.39
2023-01-22T10:21:59.730Z,0.39
2023-01-22T10:24:28.290Z,0.38
2023-01-22T10:26:58.896Z,0.39
2023-01-22T10:29:31.889Z,0.32
2023-01-22T10:32:02.118Z,0.38
2023-01-22T10:34:33.148Z,0.35
2023-01-22T10:37:04.364Z,0.27
2023-01-22T10:39:41.098Z,0.32
2023-01-22T10:42:17.765Z,0.49
2023-01-22T10:44:46.092Z,0.47
2023-01-22T10:47:20.665Z,0.58
2023-01-22T10:49:49.487Z,0.58
2023-01-22T10:52:24.443Z,0.61
2023-01-22T10:54:56.350Z,0.55
2023-01-22T10:57:31.465Z,0.48
2023-01-22T11:00:09.136Z,0.53
2023-01-22T11:02:37.711Z,0.57
2023-01-22T11:05:18.028Z,0.58
2023-01-22T11:07:49.137Z,0.63
2023-01-22T11:10:23.522Z,0.56
2023-01-22T11:12:57.517Z,0.62
2023-01-22T11:15:35.832Z,0.64
2023-01-22T11:18:07.030Z,0.69
2023-01-22T11:20:46.628Z,0.67
2023-01-22T11:23:24.972Z,0.71
2023-01-22T11:25:57.883Z,0.69
2023-01-22T11:28:41.771Z,0.76
2023-01-22T11:31:31.076Z,0.80
2023-01-22T11:34:18.050Z,0.78
2023-01-22T11:36:51.136Z,0.62
2023-01-22T11:39:44.201Z,0.82
2023-01-22T11:42:24.671Z,0.76
2023-01-22T11:45:06.161Z,0.83
2023-01-22T11:48:02.241Z,0.92
2023-01-22T11:50:36.208Z,0.90
2023-01-22T11:53:45.599Z,1.02
2023-01-22T11:56:31.687Z,0.91
2023-01-22T11:59:02.950Z,0.93
2023-01-22T12:01:46.468Z,0.96
2023-01-22T12:04:27.930Z,0.84
2023-01-22T12:07:22.110Z,0.92
2023-01-22T12:10:01.220Z,0.87
2023-01-22T12:12:41.874Z,0.88
2023-01-22T12:15:37.363Z,0.86
2023-01-22T12:18:39.945Z,0.82
2023-01-22T12:21:09.237Z,0.84
2023-01-22T12:23:41.217Z,0.86
2023-01-22T12:26:15.006Z,0.84
2023-01-22T12:28:50.919Z,0.82
2023-01-22T12:31:27.709Z,0.77
2023-01-22T12:33:55.665Z,0.77
2023-01-22T12:36:25.889Z,0.84
2023-01-22T12:38:58.520Z,0.82
2023-01-22T12:41:38.137Z,0.88
2023-01-22T12:44:20.854Z,0.77
2023-01-22T12:47:01.683Z,0.83
2023-01-22T12:49:33.176Z,0.88
2023-01-22T12:52:03.563Z,0.88
2023-01-22T12:54:36.198Z,0.88
2023-01-22T12:57:13.892Z,0.78
2023-01-22T12:59:46.862Z,0.65
2023-01-22T13:02:35.709Z,0.74
2023-01-22T13:05:23.778Z,0.69
2023-01-22T13:08:03.470Z,0.63
2023-01-22T13:10:34.784Z,0.64
2023-01-22T13:13:15.451Z,0.69
2023-01-22T13:15:44.880Z,0.58
2023-01-22T13:18:20.410Z,0.68
2023-01-22T13:21:04.088Z,0.70
2023-01-22T13:23:33.096Z,0.69
2023-01-22T13:26:01.433Z,0.52
2023-01-22T13:28:30.172Z,0.68
2023-01-22T13:31:01.560Z,0.68
2023-01-22T13:33:29.884Z,0.59
2023-01-22T13:35:59.123Z,0.68
2023-01-22T13:38:29.182Z,0.66
2023-01-22T13:40:59.922Z,0.67
2023-01-22T13:43:29.126Z,0.68
2023-01-22T13:45:58.064Z,0.67
2023-01-22T13:48:30.478Z,0.65
2023-01-22T13:51:01.914Z,0.71
2023-01-22T13:53:32.457Z,0.72
2023-01-22T13:56:01.666Z,0.67
2023-01-22T13:58:47.982Z,0.70
2023-01-22T14:01:28.595Z,0.72
2023-01-22T14:04:02.309Z,0.73
2023-01-22T14:06:31.272Z,0.69
2023-01-22T14:08:59.603Z,0.66
2023-01-22T14:11:38.419Z,0.51
2023-01-22T14:14:16.105Z,0.57
2023-01-22T14:16:45.880Z,0.59
2023-01-22T14:19:15.513Z,0.63
2023-01-22T14:21:43.550Z,0.57
2023-01-22T14:24:11.705Z,0.55
2023-01-22T14:26:42.693Z,0.57
2023-01-22T14:29:10.640Z,0.59
2023-01-22T14:31:38.878Z,0.48
2023-01-22T14:34:07.401Z,0.56
2023-01-22T14:36:37.061Z,0.60
2023-01-22T14:39:06.768Z,0.56
2023-01-22T14:41:35.145Z,0.46
2023-01-22T14:44:04.083Z,0.53
2023-01-22T14:46:32.299Z,0.55
2023-01-22T14:49:01.985Z,0.64
2023-01-22T14:51:30.200Z,0.65
2023-01-22T14:53:59.948Z,0.63
2023-01-22T14:56:28.202Z,0.64
2023-01-22T14:58:56.262Z,0.63
2023-01-22T15:01:24.627Z,0.58
2023-01-22T15:03:54.160Z,0.60
2023-01-22T15:06:24.308Z,0.59
2023-01-22T15:08:52.815Z,0.56
2023-01-22T15:11:22.387Z,0.56
2023-01-22T15:13:52.682Z,0.61
2023-01-22T15:16:21.008Z,0.57
2023-01-22T15:18:49.373Z,0.57
2023-01-22T15:21:17.419Z,0.60
2023-01-22T15:23:45.503Z,0.61
2023-01-22T15:26:25.417Z,0.59
2023-01-22T15:28:53.361Z,0.60
2023-01-22T15:31:22.263Z,0.57
2023-01-22T15:33:50.679Z,0.46
2023-01-22T15:38:32.834Z,0.61
2023-01-22T15:41:05.899Z,0.60
2023-01-22T15:43:34.696Z,0.62
2023-01-22T15:46:02.965Z,0.62
2023-01-22T15:48:31.270Z,0.61
2023-01-22T15:51:07.770Z,0.29
2023-01-22T15:53:37.435Z,0.57
2023-01-22T15:56:06.489Z,0.59
2023-01-22T15:58:37.754Z,0.63
2023-01-22T16:01:06.172Z,0.60
2023-01-22T16:03:34.333Z,0.52
2023-01-22T16:06:10.084Z,0.56
2023-01-22T16:08:39.894Z,0.58
2023-01-22T16:11:08.297Z,0.58
2023-01-22T16:13:36.582Z,0.58
2023-01-22T16:16:06.817Z,0.60
2023-01-22T16:18:36.037Z,0.56
2023-01-22T16:21:05.078Z,0.57
2023-01-22T16:23:34.171Z,0.57
2023-01-22T16:26:07.011Z,0.39
2023-01-22T16:28:40.618Z,0.55
2023-01-22T16:31:15.953Z,0.40
2023-01-22T16:33:57.584Z,0.58
2023-01-22T16:36:32.628Z,0.60
2023-01-22T16:39:06.608Z,0.49
2023-01-22T16:41:41.477Z,0.62
2023-01-22T16:44:19.174Z,0.60
2023-01-22T16:46:57.414Z,0.62
2023-01-22T16:49:27.837Z,0.64
2023-01-22T16:52:03.151Z,0.62
2023-01-22T16:54:42.269Z,0.64
2023-01-22T16:57:13.272Z,0.66
2023-01-22T16:59:45.007Z,0.59
2023-01-22T17:02:16.529Z,0.59
2023-01-22T17:04:47.446Z,0.65
2023-01-22T17:07:32.804Z,0.63
2023-01-22T17:10:04.786Z,0.64
2023-01-22T17:12:36.112Z,0.65
2023-01-22T17:15:07.275Z,0.63
2023-01-22T17:17:44.061Z,0.62
2023-01-22T17:20:15.736Z,0.61
2023-01-22T17:22:43.882Z,0.58
2023-01-22T17:25:11.867Z,0.61
2023-01-22T17:27:41.187Z,0.62
2023-01-22T17:30:10.983Z,0.51
2023-01-22T17:32:38.904Z,0.61
2023-01-22T17:35:07.324Z,0.61
2023-01-22T17:37:35.282Z,0.52
2023-01-22T17:40:03.503Z,0.67
2023-01-22T17:42:31.679Z,0.61
2023-01-22T17:45:00.993Z,0.54
2023-01-22T17:47:29.186Z,0.67
2023-01-22T17:49:57.164Z,0.64
2023-01-22T17:52:28.408Z,0.61
2023-01-22T17:54:56.316Z,0.36
2023-01-22T17:57:24.274Z,0.62
2023-01-22T17:59:52.334Z,0.63
2023-01-22T18:02:21.585Z,0.65
2023-01-22T18:04:49.602Z,0.64
2023-01-22T18:07:18.152Z,0.62
2023-01-22T18:09:46.163Z,0.50
2023-01-22T18:12:14.217Z,0.59
2023-01-22T18:14:42.168Z,0.54
2023-01-22T18:17:11.352Z,0.60
2023-01-22T18:19:40.749Z,0.61
2023-01-22T18:22:08.645Z,0.48
2023-01-22T18:24:36.528Z,0.61
2023-01-22T18:27:04.521Z,0.63
2023-01-22T18:29:32.497Z,0.62
2023-01-22T18:32:00.479Z,0.58
2023-01-22T18:34:28.417Z,0.57
2023-01-22T18:36:57.648Z,0.61
2023-01-22T18:39:25.901Z,0.63
2023-01-22T18:41:53.772Z,0.63
2023-01-22T18:44:27.521Z,0.62
2023-01-22T18:46:58.698Z,0.63
2023-01-22T18:49:28.144Z,0.63
2023-01-22T18:52:00.718Z,0.64
2023-01-22T18:54:29.022Z,0.63
2023-01-22T18:56:57.107Z,0.63
2023-01-22T18:59:25.061Z,0.65
2023-01-22T19:01:53.215Z,0.68
2023-01-22T19:04:22.137Z,0.66
2023-01-22T19:06:56.799Z,0.64
2023-01-22T19:09:26.909Z,0.61
2023-01-22T19:11:55.480Z,0.49
2023-01-22T19:14:23.506Z,0.63
2023-01-22T19:16:53.244Z,0.62
2023-01-22T19:19:25.417Z,0.67
2023-01-22T19:21:55.294Z,0.64
2023-01-22T19:24:26.638Z,0.64
2023-01-22T19:26:59.552Z,0.62
2023-01-22T19:29:27.938Z,0.62
2023-01-22T19:31:56.993Z,0.56
2023-01-22T19:34:25.607Z,0.52
2023-01-22T19:36:55.293Z,0.65
2023-01-22T19:39:26.359Z,0.64
2023-01-22T19:42:01.787Z,0.62
2023-01-22T19:44:30.055Z,0.59
2023-01-22T19:46:58.038Z,0.63
2023-01-22T19:49:26.080Z,0.61
2023-01-22T19:51:55.255Z,0.61
2023-01-22T19:54:24.589Z,0.63
2023-01-22T19:56:52.684Z,0.66
2023-01-22T19:59:25.133Z,0.53
2023-01-22T20:01:53.599Z,0.67
2023-01-22T20:04:25.047Z,0.65
2023-01-22T20:06:56.978Z,0.63
2023-01-22T20:09:24.897Z,0.59
2023-01-22T20:11:54.039Z,0.62
2023-01-22T20:14:25.193Z,0.61
2023-01-22T20:16:54.180Z,0.61
2023-01-22T20:19:22.186Z,0.63
2023-01-22T20:21:50.265Z,0.61
2023-01-22T20:24:18.415Z,0.61
2023-01-22T20:26:46.361Z,0.62
2023-01-22T20:29:14.448Z,0.65
2023-01-22T20:31:44.352Z,0.63
2023-01-22T20:34:12.461Z,0.64
2023-01-22T20:36:46.324Z,0.64
2023-01-22T20:39:16.113Z,0.61
2023-01-22T20:41:45.597Z,0.62
2023-01-22T20:44:14.119Z,0.55
2023-01-22T20:46:44.552Z,0.64
2023-01-22T20:49:13.851Z,0.65
2023-01-22T20:51:42.935Z,0.66
2023-01-22T20:54:11.066Z,0.60
2023-01-22T20:56:39.032Z,0.66
2023-01-22T20:59:10.821Z,0.66
2023-01-22T21:01:39.218Z,0.70
2023-01-22T21:04:08.824Z,0.70
2023-01-22T21:06:39.277Z,0.72
2023-01-22T21:09:08.542Z,0.75
2023-01-22T21:11:38.677Z,0.82
2023-01-22T21:14:12.095Z,0.77
2023-01-22T21:16:41.429Z,0.85
2023-01-22T21:19:15.832Z,0.76
2023-01-22T21:21:43.771Z,0.85
2023-01-22T21:24:11.961Z,0.87
2023-01-22T21:26:40.360Z,0.87
2023-01-22T21:29:12.361Z,0.87
2023-01-22T21:31:40.374Z,0.85
2023-01-22T21:34:12.864Z,0.93
2023-01-22T21:36:43.478Z,0.95
2023-01-22T21:39:15.038Z,0.95
2023-01-22T21:41:43.561Z,0.98
2023-01-22T21:44:30.419Z,1.02
2023-01-22T21:46:58.486Z,1.00
2023-01-22T21:49:28.251Z,0.95
2023-01-22T21:51:57.896Z,0.98
2023-01-22T21:54:31.027Z,1.00
2023-01-22T21:57:01.985Z,1.04
2023-01-22T21:59:29.938Z,1.03
2023-01-22T22:01:58.732Z,1.05
2023-01-22T22:04:28.407Z,1.06
2023-01-22T22:06:56.365Z,1.05
2023-01-22T22:09:26.221Z,1.07
2023-01-22T22:12:02.870Z,1.04
2023-01-22T22:14:30.958Z,1.11
2023-01-22T22:16:59.099Z,1.08
2023-01-22T22:19:29.499Z,1.13
2023-01-22T22:21:57.562Z,1.08
2023-01-22T22:24:25.669Z,1.02
2023-01-22T22:26:53.565Z,1.04
2023-01-22T22:29:21.539Z,1.03
2023-01-22T22:31:49.559Z,0.97
2023-01-22T22:34:17.541Z,0.99
2023-01-22T22:36:46.813Z,1.00
2023-01-22T22:39:14.712Z,0.94
2023-01-22T22:41:42.798Z,0.96
2023-01-22T22:44:11.588Z,0.94
2023-01-22T22:46:40.508Z,0.94
2023-01-22T22:49:16.354Z,0.95
2023-01-22T22:51:47.148Z,0.90
2023-01-22T22:54:17.373Z,0.89
2023-01-22T22:56:46.363Z,0.95
2023-01-22T22:59:14.493Z,0.95
2023-01-22T23:01:42.676Z,0.95
2023-01-22T23:04:13.387Z,0.96
2023-01-22T23:06:44.809Z,0.97
2023-01-22T23:09:16.552Z,0.89
2023-01-22T23:11:45.011Z,1.00
2023-01-22T23:14:13.586Z,1.00
2023-01-22T23:16:43.203Z,1.02
2023-01-22T23:19:17.253Z,1.03
2023-01-22T23:21:46.434Z,1.03
2023-01-22T23:24:15.862Z,1.00
2023-01-22T23:26:45.529Z,1.02
2023-01-22T23:29:16.069Z,1.02
2023-01-22T23:31:44.287Z,1.04
2023-01-22T23:34:14.348Z,0.99
2023-01-22T23:36:45.071Z,0.98
2023-01-22T23:39:19.941Z,1.05
2023-01-22T23:41:48.315Z,1.05
2023-01-22T23:44:16.243Z,1.05
2023-01-22T23:46:44.795Z,1.06
2023-01-22T23:49:12.723Z,1.06
2023-01-22T23:51:42.149Z,1.05
2023-01-22T23:54:10.472Z,1.04
2023-01-22T23:56:39.761Z,1.05
2023-01-22T23:59:07.748Z,1.05
